createdAt,value
2023-03-25T00:01:39.380Z,99.90
2023-03-25T00:04:07.587Z,99.90
2023-03-25T00:06:35.443Z,99.90
2023-03-25T00:09:06.482Z,99.90
2023-03-25T00:11:36.140Z,99.90
2023-03-25T00:14:09.357Z,99.90
2023-03-25T00:16:37.401Z,99.90
2023-03-25T00:19:05.493Z,99.90
2023-03-25T00:21:33.496Z,99.90
2023-03-25T00:24:01.055Z,99.90
2023-03-25T00:26:30.098Z,99.90
2023-03-25T00:29:03.066Z,99.90
2023-03-25T00:31:32.412Z,99.90
2023-03-25T00:34:00.192Z,99.90
2023-03-25T00:36:30.116Z,99.90
2023-03-25T00:38:59.412Z,99.90
2023-03-25T00:41:27.369Z,99.90
2023-03-25T00:44:00.980Z,99.90
2023-03-25T00:46:30.746Z,99.90
2023-03-25T00:49:04.788Z,99.90
2023-03-25T00:51:33.935Z,99.90
2023-03-25T00:54:04.665Z,99.90
2023-03-25T00:56:32.459Z,99.90
2023-03-25T00:59:04.890Z,99.90
2023-03-25T01:01:39.757Z,99.90
2023-03-25T01:04:12.987Z,99.90
2023-03-25T01:06:44.848Z,99.90
2023-03-25T01:09:14.715Z,99.90
2023-03-25T01:11:45.217Z,99.90
2023-03-25T01:14:19.820Z,99.90
2023-03-25T01:16:48.175Z,99.90
2023-03-25T01:19:16.292Z,99.90
2023-03-25T01:21:45.356Z,99.90
2023-03-25T01:24:15.895Z,99.90
2023-03-25T01:26:43.876Z,99.90
2023-03-25T01:29:12.593Z,99.90
2023-03-25T01:31:41.108Z,99.90
2023-03-25T01:34:09.117Z,99.90
2023-03-25T01:36:46.731Z,99.90
2023-03-25T01:39:19.186Z,99.90
2023-03-25T01:41:50.577Z,99.90
2023-03-25T01:45:12.064Z,99.90
2023-03-25T01:47:44.584Z,99.90
2023-03-25T01:50:16.580Z,99.90
2023-03-25T01:52:48.764Z,99.90
2023-03-25T01:55:20.120Z,99.90
2023-03-25T01:57:49.317Z,99.90
2023-03-25T02:00:19.339Z,99.90
2023-03-25T02:02:54.625Z,99.90
2023-03-25T02:08:19.291Z,99.90
2023-03-25T02:10:49.918Z,99.90
2023-03-25T02:13:21.920Z,99.90
2023-03-25T02:16:19.035Z,99.90
2023-03-25T02:19:06.027Z,99.90
2023-03-25T02:22:47.621Z,99.90
2023-03-25T02:25:46.340Z,99.90
2023-03-25T02:28:26.405Z,99.90
2023-03-25T02:31:47.172Z,99.90
2023-03-25T02:34:41.851Z,99.90
2023-03-25T02:38:11.862Z,99.90
2023-03-25T02:40:46.803Z,99.90
2023-03-25T02:43:20.810Z,99.90
2023-03-25T02:45:55.293Z,99.90
2023-03-25T02:48:33.705Z,99.90
2023-03-25T02:51:08.197Z,99.90
2023-03-25T02:53:41.498Z,99.90
2023-03-25T02:56:15.883Z,99.90
2023-03-25T02:58:46.459Z,99.90
2023-03-25T03:01:14.851Z,99.90
2023-03-25T03:03:42.180Z,99.90
2023-03-25T03:06:19.141Z,99.90
2023-03-25T03:09:07.595Z,99.90
2023-03-25T03:11:54.516Z,99.90
2023-03-25T03:14:50.542Z,99.90
2023-03-25T03:17:26.276Z,99.90
2023-03-25T03:20:00.654Z,99.90
2023-03-25T03:22:53.218Z,99.90
2023-03-25T03:25:29.415Z,99.90
2023-03-25T03:28:05.123Z,99.90
2023-03-25T03:30:40.120Z,99.90
2023-03-25T03:33:21.699Z,99.90
2023-03-25T03:35:58.094Z,99.90
2023-03-25T03:38:32.697Z,99.90
2023-03-25T03:41:10.690Z,99.90
2023-03-25T03:43:43.889Z,99.90
2023-03-25T03:46:18.638Z,99.90
2023-03-25T03:48:52.618Z,99.90
2023-03-25T03:51:25.410Z,99.90
2023-03-25T03:53:58.897Z,99.90
2023-03-25T03:56:32.296Z,99.90
2023-03-25T03:59:04.220Z,99.90
2023-03-25T04:01:35.095Z,99.90
2023-03-25T04:04:06.599Z,99.90
2023-03-25T04:06:42.360Z,99.90
2023-03-25T04:09:27.715Z,99.90
2023-03-25T04:11:59.908Z,99.90
2023-03-25T04:14:28.743Z,99.90
2023-03-25T04:16:56.552Z,99.90
2023-03-25T04:19:28.029Z,99.90
2023-03-25T04:21:55.646Z,99.90
2023-03-25T04:24:23.940Z,99.90
2023-03-25T04:26:53.502Z,99.90
2023-03-25T04:29:20.785Z,99.90
2023-03-25T04:31:51.154Z,99.90
2023-03-25T04:34:21.136Z,99.90
2023-03-25T04:36:59.206Z,99.90
2023-03-25T04:39:30.109Z,99.90
2023-03-25T04:41:57.133Z,99.90
2023-03-25T04:44:33.987Z,99.90
2023-03-25T04:47:03.442Z,99.90
2023-03-25T04:49:30.971Z,99.90
2023-03-25T04:52:02.502Z,99.90
2023-03-25T04:54:30.216Z,99.90
2023-03-25T04:57:00.958Z,99.90
2023-03-25T04:59:28.767Z,99.90
2023-03-25T05:01:55.918Z,99.90
2023-03-25T05:04:31.174Z,99.90
2023-03-25T05:07:05.960Z,99.90
2023-03-25T05:09:33.449Z,99.90
2023-03-25T05:12:03.740Z,99.90
2023-03-25T05:14:30.875Z,99.90
2023-03-25T05:17:00.165Z,99.90
2023-03-25T05:19:29.040Z,99.90
2023-03-25T05:21:58.557Z,99.90
2023-03-25T05:24:26.261Z,99.90
2023-03-25T05:26:56.976Z,99.90
2023-03-25T05:29:24.015Z,99.90
2023-03-25T05:31:51.726Z,99.90
2023-03-25T05:34:21.183Z,99.90
2023-03-25T05:36:48.756Z,99.90
2023-03-25T05:39:20.318Z,99.90
2023-03-25T05:41:47.779Z,99.90
2023-03-25T05:44:15.555Z,99.90
2023-03-25T05:46:43.320Z,99.90
2023-03-25T05:49:10.945Z,99.90
2023-03-25T05:51:38.393Z,99.90
2023-03-25T05:54:12.110Z,99.90
2023-03-25T05:56:42.043Z,99.90
2023-03-25T05:59:17.373Z,99.90
2023-03-25T06:01:45.662Z,99.90
2023-03-25T06:04:13.412Z,99.90
2023-03-25T06:06:41.846Z,99.90
2023-03-25T06:09:13.322Z,99.90
2023-03-25T06:11:41.795Z,99.90
2023-03-25T06:14:09.885Z,99.90
2023-03-25T06:16:37.791Z,99.90
2023-03-25T06:19:19.216Z,99.90
2023-03-25T06:21:53.844Z,99.90
2023-03-25T06:24:24.331Z,99.90
2023-03-25T06:26:53.383Z,99.90
2023-03-25T06:29:21.895Z,99.90
2023-03-25T06:31:49.470Z,99.90
2023-03-25T06:34:16.557Z,99.90
2023-03-25T06:36:44.227Z,99.90
2023-03-25T06:39:15.722Z,99.90
2023-03-25T06:41:43.433Z,99.90
2023-03-25T06:44:14.989Z,99.90
2023-03-25T06:46:42.104Z,99.90
2023-03-25T06:49:12.254Z,99.90
2023-03-25T06:51:39.316Z,99.90
2023-03-25T06:54:07.150Z,99.90
2023-03-25T06:56:34.800Z,99.90
2023-03-25T06:59:08.433Z,99.90
2023-03-25T07:01:36.892Z,99.90
2023-03-25T07:04:07.714Z,99.90
2023-03-25T07:06:34.980Z,99.90
2023-03-25T07:09:02.489Z,99.90
2023-03-25T07:11:31.448Z,99.90
2023-03-25T07:13:58.891Z,99.90
2023-03-25T07:16:29.292Z,99.90
2023-03-25T07:19:01.008Z,99.90
2023-03-25T07:21:28.640Z,99.90
2023-03-25T07:23:56.433Z,99.90
2023-03-25T07:26:23.571Z,99.90
2023-03-25T07:28:51.772Z,99.90
2023-03-25T07:31:19.127Z,99.90
2023-03-25T07:33:46.786Z,99.90
2023-03-25T07:36:15.266Z,99.90
2023-03-25T07:38:42.929Z,99.90
2023-03-25T07:41:12.878Z,99.90
2023-03-25T07:43:40.350Z,99.90
2023-03-25T07:46:07.837Z,99.90
2023-03-25T07:48:35.010Z,99.90
2023-03-25T07:51:02.549Z,99.90
2023-03-25T07:53:31.318Z,99.90
2023-03-25T07:55:58.930Z,99.90
2023-03-25T07:58:28.731Z,99.90
2023-03-25T08:00:57.740Z,99.90
2023-03-25T08:03:25.609Z,99.90
2023-03-25T08:08:41.877Z,99.90
2023-03-25T08:11:12.062Z,99.90
2023-03-25T08:13:39.815Z,99.90
2023-03-25T08:16:12.193Z,99.90
2023-03-25T08:18:39.736Z,99.90
2023-03-25T08:21:08.799Z,99.90
2023-03-25T08:23:37.574Z,99.90
2023-03-25T08:26:10.937Z,99.10
2023-03-25T08:28:38.557Z,99.30
2023-03-25T08:31:09.136Z,97.80
2023-03-25T08:33:41.349Z,97.50
2023-03-25T08:36:14.257Z,97.00
2023-03-25T08:38:42.229Z,96.40
2023-03-25T08:41:11.202Z,96.60
2023-03-25T08:43:38.925Z,96.50
2023-03-25T08:46:06.793Z,96.60
2023-03-25T08:48:34.858Z,97.20
2023-03-25T08:51:02.695Z,97.20
2023-03-25T08:53:30.388Z,97.60
2023-03-25T08:56:00.209Z,98.20
2023-03-25T08:58:34.653Z,98.30
2023-03-25T09:01:04.667Z,98.40
2023-03-25T09:03:38.279Z,98.20
2023-03-25T09:06:06.988Z,97.70
2023-03-25T09:08:34.493Z,97.60
2023-03-25T09:11:01.641Z,97.60
2023-03-25T09:13:30.475Z,97.40
2023-03-25T09:15:59.120Z,97.30
2023-03-25T09:18:26.830Z,97.40
2023-03-25T09:20:59.447Z,98.00
2023-03-25T09:23:27.378Z,98.60
2023-03-25T09:25:55.355Z,99.40
2023-03-25T09:28:24.049Z,99.80
2023-03-25T09:33:39.093Z,99.90
2023-03-25T09:36:08.805Z,99.90
2023-03-25T09:38:36.302Z,99.90
2023-03-25T09:41:42.140Z,99.90
2023-03-25T09:44:22.198Z,99.90
2023-03-25T09:46:59.891Z,99.90
2023-03-25T09:49:37.972Z,99.90
2023-03-25T09:52:06.635Z,99.90
2023-03-25T09:54:43.410Z,99.90
2023-03-25T09:57:21.192Z,99.90
2023-03-25T09:59:51.186Z,99.90
2023-03-25T10:02:34.186Z,99.90
2023-03-25T10:05:54.167Z,99.90
2023-03-25T10:08:33.849Z,99.90
2023-03-25T10:11:11.931Z,99.90
2023-03-25T10:13:49.132Z,99.90
2023-03-25T10:16:28.116Z,99.90
2023-03-25T10:19:16.659Z,99.80
2023-03-25T10:21:50.825Z,98.80
2023-03-25T10:24:21.842Z,99.50
2023-03-25T10:26:56.629Z,99.10
2023-03-25T10:29:32.154Z,98.20
2023-03-25T10:32:16.780Z,97.70
2023-03-25T10:34:51.821Z,97.40
2023-03-25T10:37:29.598Z,97.00
2023-03-25T10:40:13.764Z,96.80
2023-03-25T10:42:55.647Z,97.10
2023-03-25T10:45:25.441Z,96.40
2023-03-25T10:47:55.399Z,96.30
2023-03-25T10:50:26.315Z,96.30
2023-03-25T10:52:55.201Z,96.00
2023-03-25T10:55:29.792Z,96.20
2023-03-25T10:57:57.862Z,95.90
2023-03-25T11:00:26.388Z,95.20
2023-03-25T11:02:57.033Z,95.60
2023-03-25T11:05:29.900Z,95.30
2023-03-25T11:08:11.897Z,95.20
2023-03-25T11:10:51.232Z,95.20
2023-03-25T11:13:24.101Z,94.50
2023-03-25T11:15:55.128Z,94.60
2023-03-25T11:18:27.528Z,94.60
2023-03-25T11:21:09.046Z,94.80
2023-03-25T11:23:38.226Z,94.10
2023-03-25T11:26:12.011Z,94.40
2023-03-25T11:28:44.788Z,94.60
2023-03-25T11:31:18.049Z,94.30
2023-03-25T11:33:47.280Z,93.60
2023-03-25T11:36:28.325Z,94.10
2023-03-25T11:39:03.984Z,92.90
2023-03-25T11:41:34.916Z,93.00
2023-03-25T11:44:03.293Z,92.30
2023-03-25T11:46:31.542Z,91.30
2023-03-25T11:49:12.254Z,91.50
2023-03-25T11:51:41.444Z,90.70
2023-03-25T11:54:13.645Z,91.60
2023-03-25T11:56:49.701Z,91.40
2023-03-25T11:59:24.625Z,92.00
2023-03-25T12:04:58.185Z,91.80
2023-03-25T12:07:27.265Z,91.00
2023-03-25T12:09:57.625Z,91.50
2023-03-25T12:12:42.944Z,91.10
2023-03-25T12:15:32.114Z,91.00
2023-03-25T12:18:20.460Z,91.00
2023-03-25T12:20:58.610Z,90.80
2023-03-25T12:23:40.526Z,91.10
2023-03-25T12:26:13.260Z,91.30
2023-03-25T12:29:08.976Z,91.20
2023-03-25T12:31:51.306Z,91.30
2023-03-25T12:34:30.930Z,91.10
2023-03-25T12:37:10.729Z,91.40
2023-03-25T12:39:53.012Z,91.00
2023-03-25T12:42:37.367Z,91.20
2023-03-25T12:45:26.332Z,91.80
2023-03-25T12:47:57.046Z,91.20
2023-03-25T12:50:36.947Z,91.40
2023-03-25T12:53:46.893Z,91.90
2023-03-25T13:00:04.656Z,93.60
2023-03-25T13:03:31.451Z,93.60
2023-03-25T13:06:05.704Z,93.90
2023-03-25T13:08:43.181Z,93.30
2023-03-25T13:11:18.768Z,93.70
2023-03-25T13:13:52.526Z,93.80
2023-03-25T13:16:29.257Z,94.00
2023-03-25T13:19:04.881Z,93.60
2023-03-25T13:21:40.484Z,93.70
2023-03-25T13:24:16.689Z,93.00
2023-03-25T13:26:56.082Z,92.90
2023-03-25T13:29:29.338Z,93.00
2023-03-25T13:32:01.913Z,92.90
2023-03-25T13:34:36.650Z,93.00
2023-03-25T13:37:11.953Z,93.30
2023-03-25T13:40:03.425Z,93.20
2023-03-25T13:42:42.075Z,93.30
2023-03-25T13:45:18.059Z,92.90
2023-03-25T13:47:50.599Z,93.20
2023-03-25T13:50:26.508Z,92.70
2023-03-25T13:53:00.915Z,92.60
2023-03-25T13:55:36.073Z,92.40
2023-03-25T13:58:34.450Z,92.30
2023-03-25T14:01:52.422Z,92.10
2023-03-25T14:04:49.531Z,91.00
2023-03-25T14:07:45.302Z,90.10
2023-03-25T14:10:42.634Z,88.40
2023-03-25T14:13:32.349Z,89.00
2023-03-25T14:16:04.056Z,88.90
2023-03-25T14:18:44.061Z,88.30
2023-03-25T14:21:32.304Z,88.20
2023-03-25T14:24:13.686Z,87.70
2023-03-25T14:26:51.025Z,88.10
2023-03-25T14:29:39.533Z,88.00
2023-03-25T14:32:32.735Z,88.20
2023-03-25T14:35:50.861Z,87.80
2023-03-25T14:38:53.641Z,86.90
2023-03-25T14:41:59.627Z,85.50
2023-03-25T14:44:32.861Z,86.00
2023-03-25T14:47:03.238Z,85.60
2023-03-25T14:50:00.531Z,85.00
2023-03-25T14:52:32.888Z,85.60
2023-03-25T14:55:10.395Z,83.90
2023-03-25T14:57:43.261Z,84.60
2023-03-25T15:00:28.183Z,83.20
2023-03-25T15:03:04.162Z,82.70
2023-03-25T15:05:35.969Z,83.30
2023-03-25T15:08:17.272Z,84.20
2023-03-25T15:10:50.638Z,83.20
2023-03-25T15:13:24.528Z,83.60
2023-03-25T15:16:01.541Z,82.40
2023-03-25T15:19:01.815Z,82.80
2023-03-25T15:21:55.982Z,82.80
2023-03-25T15:30:55.966Z,82.80
2023-03-25T15:33:49.861Z,83.10
2023-03-25T15:37:08.781Z,83.70
2023-03-25T15:39:54.786Z,83.30
2023-03-25T15:42:54.616Z,83.80
2023-03-25T15:46:02.132Z,84.30
2023-03-25T15:48:55.014Z,84.70
2023-03-25T15:51:47.556Z,84.60
2023-03-25T15:54:37.988Z,84.70
2023-03-25T15:57:18.226Z,84.90
2023-03-25T16:00:02.739Z,85.00
2023-03-25T16:02:36.702Z,84.90
2023-03-25T16:05:16.806Z,85.20
2023-03-25T16:07:47.015Z,85.20
2023-03-25T16:10:22.400Z,86.50
2023-03-25T16:12:51.434Z,86.70
2023-03-25T16:15:27.684Z,86.70
2023-03-25T16:17:55.436Z,87.80
2023-03-25T16:20:27.326Z,86.90
2023-03-25T16:22:59.419Z,86.40
2023-03-25T16:25:45.260Z,87.00
2023-03-25T16:28:24.732Z,86.80
2023-03-25T16:31:07.483Z,87.00
2023-03-25T16:33:39.186Z,87.20
2023-03-25T16:36:16.183Z,86.90
2023-03-25T16:38:45.684Z,87.00
2023-03-25T16:41:38.749Z,87.70
2023-03-25T16:44:16.942Z,88.30
2023-03-25T16:46:51.784Z,89.00
2023-03-25T16:49:27.510Z,89.00
2023-03-25T16:51:56.952Z,89.70
2023-03-25T16:54:37.120Z,90.00
2023-03-25T16:57:07.733Z,90.50
2023-03-25T16:59:37.809Z,90.20
2023-03-25T17:02:31.011Z,90.20
2023-03-25T17:05:16.517Z,90.50
2023-03-25T17:07:46.377Z,90.30
2023-03-25T17:10:26.763Z,90.50
2023-03-25T17:13:00.213Z,90.70
2023-03-25T17:15:27.934Z,90.70
2023-03-25T17:18:02.437Z,90.70
2023-03-25T17:20:36.921Z,91.00
2023-03-25T17:23:10.562Z,91.40
2023-03-25T17:25:52.629Z,91.30
2023-03-25T17:28:33.953Z,91.50
2023-03-25T17:31:18.355Z,91.70
2023-03-25T17:33:51.502Z,91.90
2023-03-25T17:36:22.410Z,92.00
2023-03-25T17:38:53.405Z,92.00
2023-03-25T17:41:21.970Z,92.40
2023-03-25T17:43:53.547Z,92.30
2023-03-25T17:46:26.639Z,92.50
2023-03-25T17:48:58.016Z,92.70
2023-03-25T17:51:27.559Z,92.80
2023-03-25T17:53:56.860Z,93.00
2023-03-25T17:56:29.222Z,93.20
2023-03-25T17:59:04.219Z,93.40
2023-03-25T18:01:33.024Z,93.40
2023-03-25T18:04:04.628Z,93.00
2023-03-25T18:06:34.180Z,93.00
2023-03-25T18:09:01.979Z,93.10
2023-03-25T18:11:32.653Z,93.20
2023-03-25T18:14:00.490Z,93.30
2023-03-25T18:16:27.745Z,93.30
2023-03-25T18:18:55.469Z,93.50
2023-03-25T18:21:25.341Z,93.70
2023-03-25T18:23:57.228Z,93.60
2023-03-25T18:26:29.275Z,93.90
2023-03-25T18:28:56.677Z,93.90
2023-03-25T18:31:23.768Z,94.00
2023-03-25T18:33:53.116Z,94.00
2023-03-25T18:36:20.932Z,94.20
2023-03-25T18:38:49.602Z,94.90
2023-03-25T18:41:17.432Z,95.40
2023-03-25T18:43:46.000Z,96.00
2023-03-25T18:46:21.961Z,96.30
2023-03-25T18:48:50.511Z,96.60
2023-03-25T18:51:22.542Z,96.90
2023-03-25T18:53:51.285Z,97.10
2023-03-25T18:56:20.523Z,97.50
2023-03-25T18:58:48.137Z,97.70
2023-03-25T19:01:19.310Z,97.90
2023-03-25T19:03:46.620Z,98.10
2023-03-25T19:06:15.187Z,98.30
2023-03-25T19:08:44.829Z,98.40
2023-03-25T19:11:21.682Z,98.50
2023-03-25T19:13:50.943Z,98.70
2023-03-25T19:16:19.353Z,98.90
2023-03-25T19:18:48.001Z,98.90
2023-03-25T19:21:17.273Z,99.00
2023-03-25T19:23:44.978Z,99.20
2023-03-25T19:26:15.966Z,99.30
2023-03-25T19:31:34.983Z,99.40
2023-03-25T19:34:02.322Z,99.50
2023-03-25T19:36:35.026Z,99.70
2023-03-25T19:39:06.268Z,99.90
2023-03-25T19:41:37.697Z,99.90
2023-03-25T19:44:04.780Z,99.90
2023-03-25T19:46:33.700Z,99.90
2023-03-25T19:49:04.402Z,99.90
2023-03-25T19:51:37.027Z,99.90
2023-03-25T19:54:05.028Z,99.90
2023-03-25T19:56:38.459Z,99.90
2023-03-25T19:59:05.803Z,99.90
2023-03-25T20:01:35.546Z,99.90
2023-03-25T20:04:04.360Z,99.90
2023-03-25T20:06:31.541Z,99.90
2023-03-25T20:08:58.528Z,99.90
2023-03-25T20:11:25.799Z,99.90
2023-03-25T20:13:54.992Z,99.90
2023-03-25T20:16:23.016Z,99.90
2023-03-25T20:18:51.115Z,99.90
2023-03-25T20:21:22.888Z,99.90
2023-03-25T20:23:53.725Z,99.90
2023-03-25T20:26:21.073Z,99.90
2023-03-25T20:28:50.728Z,99.90
2023-03-25T20:31:22.840Z,99.90
2023-03-25T20:33:51.167Z,99.90
2023-03-25T20:36:19.572Z,99.90
2023-03-25T20:38:57.308Z,99.90
2023-03-25T20:41:27.813Z,99.90
2023-03-25T20:43:57.586Z,99.90
2023-03-25T20:46:28.898Z,99.90
2023-03-25T20:48:58.541Z,99.90
2023-03-25T20:51:26.011Z,99.90
2023-03-25T20:53:53.561Z,99.90
2023-03-25T20:56:21.373Z,99.90
2023-03-25T20:58:49.084Z,99.90
2023-03-25T21:01:16.805Z,99.90
2023-03-25T21:03:45.474Z,99.90
2023-03-25T21:08:48.469Z,99.90
2023-03-25T21:11:17.791Z,99.90
2023-03-25T21:13:45.646Z,99.90
2023-03-25T21:16:14.660Z,99.90
2023-03-25T21:18:43.923Z,99.90
2023-03-25T21:21:11.618Z,99.90
2023-03-25T21:23:44.942Z,99.90
2023-03-25T21:26:13.357Z,99.90
2023-03-25T21:28:47.863Z,99.90
2023-03-25T21:31:21.183Z,99.90
2023-03-25T21:33:52.842Z,99.90
2023-03-25T21:36:23.438Z,99.90
2023-03-25T21:38:54.734Z,99.90
2023-03-25T21:41:22.287Z,99.90
2023-03-25T21:43:53.198Z,99.90
2023-03-25T21:46:24.620Z,99.90
2023-03-25T21:48:58.842Z,99.90
2023-03-25T21:51:30.863Z,99.90
2023-03-25T21:54:00.291Z,99.90
2023-03-25T21:56:33.465Z,99.90
2023-03-25T22:01:53.973Z,99.90
2023-03-25T22:04:33.726Z,99.90
2023-03-25T22:07:06.446Z,99.90
2023-03-25T22:09:35.344Z,99.90
2023-03-25T22:12:02.946Z,99.90
2023-03-25T22:14:30.009Z,99.90
2023-03-25T22:17:00.020Z,99.90
2023-03-25T22:19:37.832Z,99.90
2023-03-25T22:22:20.052Z,99.90
2023-03-25T22:24:48.611Z,99.90
2023-03-25T22:27:18.801Z,99.90
2023-03-25T22:29:52.860Z,99.90
2023-03-25T22:32:27.554Z,99.90
2023-03-25T22:34:56.921Z,99.90
2023-03-25T22:37:30.694Z,99.90
2023-03-25T22:40:05.572Z,99.90
2023-03-25T22:42:39.114Z,99.90
2023-03-25T22:45:19.188Z,99.90
2023-03-25T22:47:49.787Z,99.90
2023-03-25T22:50:31.914Z,99.90
2023-03-25T22:52:59.223Z,99.90
2023-03-25T22:55:29.858Z,99.90
2023-03-25T22:58:06.020Z,99.90
2023-03-25T23:00:33.146Z,99.90
2023-03-25T23:03:00.616Z,99.90
2023-03-25T23:05:36.802Z,99.90
2023-03-25T23:08:12.686Z,99.90
2023-03-25T23:10:43.952Z,99.90
2023-03-25T23:13:14.435Z,99.90
2023-03-25T23:15:44.690Z,99.90
2023-03-25T23:18:15.491Z,99.90
2023-03-25T23:20:49.604Z,99.90
2023-03-25T23:23:18.099Z,99.90
2023-03-25T23:25:45.371Z,99.90
2023-03-25T23:28:12.991Z,99.90
2023-03-25T23:30:45.913Z,99.90
2023-03-25T23:33:21.131Z,99.90
2023-03-25T23:35:52.275Z,99.90
2023-03-25T23:41:07.896Z,99.90
2023-03-25T23:43:37.137Z,99.90
2023-03-25T23:46:18.579Z,99.90
2023-03-25T23:48:47.215Z,99.90
2023-03-25T23:51:20.571Z,99.90
2023-03-25T23:56:39.302Z,99.90
2023-03-25T23:59:07.026Z,99.90
